sensor_id;sensor_type;location;lat;lon;timestamp;P1;P2;P0
45112;PMS5003;30873;53.908;27.576;2022-08-20T00:02:55;18.5;17.3;12.5
45112;PMS5003;30873;53.908;27.576;2022-08-20T00:07:53;19.6;18.4;12.8
45112;PMS5003;30873;53.908;27.576;2022-08-20T00:12:59;21.4;19.2;13
45112;PMS5003;30873;53.908;27.576;2022-08-20T00:17:59;19.8;18;13.1
45112;PMS5003;30873;53.908;27.576;2022-08-20T00:22:54;20.1;18.9;13.2
45112;PMS5003;30873;53.908;27.576;2022-08-20T00:27:54;22.8;21.2;14.5
45112;PMS5003;30873;53.908;27.576;2022-08-20T00:32:53;25.8;23.2;17.4
45112;PMS5003;30873;53.908;27.576;2022-08-20T00:37:53;25.1;23.8;16.4
45112;PMS5003;30873;53.908;27.576;2022-08-20T00:44:15;33.6;31.1;22.8
45112;PMS5003;30873;53.908;27.576;2022-08-20T00:47:53;33.9;30.3;22.3
45112;PMS5003;30873;53.908;27.576;2022-08-20T00:52:53;51.8;44.1;34.9
45112;PMS5003;30873;53.908;27.576;2022-08-20T00:57:55;40.5;35.8;26.4
45112;PMS5003;30873;53.908;27.576;2022-08-20T01:02:52;50.2;43.1;33.5
45112;PMS5003;30873;53.908;27.576;2022-08-20T01:07:53;45.4;39.4;29.6
45112;PMS5003;30873;53.908;27.576;2022-08-20T01:13:03;48.9;42.6;34.8
45112;PMS5003;30873;53.908;27.576;2022-08-20T01:17:54;26.6;24.5;17.3
45112;PMS5003;30873;53.908;27.576;2022-08-20T01:23:10;41.1;37.2;27.8
45112;PMS5003;30873;53.908;27.576;2022-08-20T01:27:57;33;28.8;20.6
45112;PMS5003;30873;53.908;27.576;2022-08-20T01:33:02;21.9;20.5;13.5
45112;PMS5003;30873;53.908;27.576;2022-08-20T01:38:04;22.5;20.8;14
45112;PMS5003;30873;53.908;27.576;2022-08-20T01:43:03;23.6;20.9;13.8
45112;PMS5003;30873;53.908;27.576;2022-08-20T01:47:59;23.7;21.9;14.8
45112;PMS5003;30873;53.908;27.576;2022-08-20T01:53:02;24.8;21.7;14
45112;PMS5003;30873;53.908;27.576;2022-08-20T01:58:01;23.1;21.7;14.9
45112;PMS5003;30873;53.908;27.576;2022-08-20T02:02:53;25;22.1;15
45112;PMS5003;30873;53.908;27.576;2022-08-20T02:07:53;31.2;27.8;20
45112;PMS5003;30873;53.908;27.576;2022-08-20T02:13:08;27.3;24.4;17.6
45112;PMS5003;30873;53.908;27.576;2022-08-20T02:18:08;36.7;32.9;24
45112;PMS5003;30873;53.908;27.576;2022-08-20T02:22:54;33;29.9;22
45112;PMS5003;30873;53.908;27.576;2022-08-20T02:28:07;34.5;31.8;23.5
45112;PMS5003;30873;53.908;27.576;2022-08-20T02:32:51;27.9;26.1;19
45112;PMS5003;30873;53.908;27.576;2022-08-20T02:37:59;25.8;23;16.5
45112;PMS5003;30873;53.908;27.576;2022-08-20T02:43:03;26.2;23.7;17.7
45112;PMS5003;30873;53.908;27.576;2022-08-20T02:48:07;26.1;24.3;17.8
45112;PMS5003;30873;53.908;27.576;2022-08-20T02:52:53;25.5;23.9;17.7
45112;PMS5003;30873;53.908;27.576;2022-08-20T02:57:54;27.5;25.6;17.7
45112;PMS5003;30873;53.908;27.576;2022-08-20T03:02:57;25.1;23.1;17.1
45112;PMS5003;30873;53.908;27.576;2022-08-20T03:07:52;25.1;23.4;17
45112;PMS5003;30873;53.908;27.576;2022-08-20T03:12:53;24.8;23.1;16.8
45112;PMS5003;30873;53.908;27.576;2022-08-20T03:17:53;28.5;26.2;18.5
45112;PMS5003;30873;53.908;27.576;2022-08-20T03:23:05;35.7;31.8;24.2
45112;PMS5003;30873;53.908;27.576;2022-08-20T03:27:54;38.9;34.3;25.5
45112;PMS5003;30873;53.908;27.576;2022-08-20T03:32:51;34.4;30.9;22.1
45112;PMS5003;30873;53.908;27.576;2022-08-20T03:37:59;32.3;29.6;22
45112;PMS5003;30873;53.908;27.576;2022-08-20T03:42:59;31.9;29.6;21.3
45112;PMS5003;30873;53.908;27.576;2022-08-20T03:48:15;27.7;26.1;19.1
45112;PMS5003;30873;53.908;27.576;2022-08-20T03:53:10;38.7;33.6;24.7
45112;PMS5003;30873;53.908;27.576;2022-08-20T03:57:54;25.5;24.3;17.5
45112;PMS5003;30873;53.908;27.576;2022-08-20T04:02:51;25.9;24.5;17.2
45112;PMS5003;30873;53.908;27.576;2022-08-20T04:08:03;24.4;22.7;15.6
45112;PMS5003;30873;53.908;27.576;2022-08-20T04:12:53;24.1;23;16.2
45112;PMS5003;30873;53.908;27.576;2022-08-20T04:17:59;23.4;21.5;14.5
45112;PMS5003;30873;53.908;27.576;2022-08-20T04:22:59;25.5;22.4;16.3
45112;PMS5003;30873;53.908;27.576;2022-08-20T04:27:53;23.4;21.8;15.6
45112;PMS5003;30873;53.908;27.576;2022-08-20T04:32:51;25.7;23.3;16.8
45112;PMS5003;30873;53.908;27.576;2022-08-20T04:38:03;24;22.5;15.4
45112;PMS5003;30873;53.908;27.576;2022-08-20T04:42:53;22.7;21.1;14.3
45112;PMS5003;30873;53.908;27.576;2022-08-20T04:47:53;23.4;21.1;14.1
45112;PMS5003;30873;53.908;27.576;2022-08-20T04:52:53;22.1;19.7;13.6
45112;PMS5003;30873;53.908;27.576;2022-08-20T04:58:17;20.6;19.5;13.5
45112;PMS5003;30873;53.908;27.576;2022-08-20T05:03:11;21.1;19;13.3
45112;PMS5003;30873;53.908;27.576;2022-08-20T05:08:00;21.9;20.6;13.9
45112;PMS5003;30873;53.908;27.576;2022-08-20T05:12:53;21.9;20.1;13.3
45112;PMS5003;30873;53.908;27.576;2022-08-20T05:18:02;21.5;20.1;13.9
45112;PMS5003;30873;53.908;27.576;2022-08-20T05:22:53;20.2;18.3;12.8
45112;PMS5003;30873;53.908;27.576;2022-08-20T05:27:56;21;18.6;13.2
45112;PMS5003;30873;53.908;27.576;2022-08-20T05:32:51;21.2;19.5;13.5
45112;PMS5003;30873;53.908;27.576;2022-08-20T05:37:53;22.4;21;14.1
45112;PMS5003;30873;53.908;27.576;2022-08-20T05:42:53;21.7;20.2;13
45112;PMS5003;30873;53.908;27.576;2022-08-20T05:47:53;21.5;19.2;13.3
45112;PMS5003;30873;53.908;27.576;2022-08-20T05:52:53;23.5;21.3;13.4
45112;PMS5003;30873;53.908;27.576;2022-08-20T05:58:08;23;19.9;13.6
45112;PMS5003;30873;53.908;27.576;2022-08-20T06:02:51;22.2;19;13.2
45112;PMS5003;30873;53.908;27.576;2022-08-20T06:07:59;22.1;20.4;14
45112;PMS5003;30873;53.908;27.576;2022-08-20T06:12:53;23.5;21.3;14.4
45112;PMS5003;30873;53.908;27.576;2022-08-20T06:17:53;22.3;20;14
45112;PMS5003;30873;53.908;27.576;2022-08-20T06:22:59;23.9;21.1;13.9
45112;PMS5003;30873;53.908;27.576;2022-08-20T06:28:00;21.9;19.6;13.2
45112;PMS5003;30873;53.908;27.576;2022-08-20T06:32:53;22.5;19.8;14.2
45112;PMS5003;30873;53.908;27.576;2022-08-20T06:37:53;21.6;19.8;13.7
45112;PMS5003;30873;53.908;27.576;2022-08-20T06:42:54;20.8;19.2;13.1
45112;PMS5003;30873;53.908;27.576;2022-08-20T06:48:00;21.9;19.4;13.1
45112;PMS5003;30873;53.908;27.576;2022-08-20T06:52:53;17.9;16.6;12.6
45112;PMS5003;30873;53.908;27.576;2022-08-20T06:57:55;19.6;17.6;12.7
45112;PMS5003;30873;53.908;27.576;2022-08-20T07:02:58;19.1;17.6;12.6
45112;PMS5003;30873;53.908;27.576;2022-08-20T07:08:02;18.6;16.7;11.6
45112;PMS5003;30873;53.908;27.576;2022-08-20T07:13:05;18.8;17;12
45112;PMS5003;30873;53.908;27.576;2022-08-20T07:18:00;17.8;16.3;11.8
45112;PMS5003;30873;53.908;27.576;2022-08-20T07:22:53;16.4;14.9;10.5
45112;PMS5003;30873;53.908;27.576;2022-08-20T07:28:12;16.4;14.6;9.8
45112;PMS5003;30873;53.908;27.576;2022-08-20T07:32:57;14.8;13.1;9.3
45112;PMS5003;30873;53.908;27.576;2022-08-20T07:37:53;15.1;13.3;8.9
45112;PMS5003;30873;53.908;27.576;2022-08-20T07:42:54;15;13.7;9.1
45112;PMS5003;30873;53.908;27.576;2022-08-20T07:47:53;14.7;13.7;9.7
45112;PMS5003;30873;53.908;27.576;2022-08-20T07:53:20;14.6;13.5;9.5
45112;PMS5003;30873;53.908;27.576;2022-08-20T07:57:53;13.7;12.4;8.1
45112;PMS5003;30873;53.908;27.576;2022-08-20T08:02:51;12.7;11.8;7.8
45112;PMS5003;30873;53.908;27.576;2022-08-20T08:07:54;11.9;10.6;7.5
45112;PMS5003;30873;53.908;27.576;2022-08-20T08:13:01;11.2;10.2;7.1
45112;PMS5003;30873;53.908;27.576;2022-08-20T08:17:54;11.6;10.7;7.1
45112;PMS5003;30873;53.908;27.576;2022-08-20T08:22:53;11.7;10.3;7.6
45112;PMS5003;30873;53.908;27.576;2022-08-20T08:27:59;10.7;9.9;7.3
45112;PMS5003;30873;53.908;27.576;2022-08-20T08:32:51;10.7;10;7
45112;PMS5003;30873;53.908;27.576;2022-08-20T08:37:53;11.2;10.7;7.4
45112;PMS5003;30873;53.908;27.576;2022-08-20T08:43:02;10.8;10.4;7.2
45112;PMS5003;30873;53.908;27.576;2022-08-20T08:48:10;9.9;9;6.6
45112;PMS5003;30873;53.908;27.576;2022-08-20T08:52:54;9.5;9.3;6.9
45112;PMS5003;30873;53.908;27.576;2022-08-20T08:58:11;10.4;9.7;6.9
45112;PMS5003;30873;53.908;27.576;2022-08-20T09:02:53;11.3;10.4;6.8
45112;PMS5003;30873;53.908;27.576;2022-08-20T09:08:04;9;8.3;6
45112;PMS5003;30873;53.908;27.576;2022-08-20T09:12:53;8.6;8;5.6
45112;PMS5003;30873;53.908;27.576;2022-08-20T09:18:11;11.4;10.8;7.8
45112;PMS5003;30873;53.908;27.576;2022-08-20T09:22:53;8.9;8.3;6.3
45112;PMS5003;30873;53.908;27.576;2022-08-20T09:28:02;8.3;7.7;5.7
45112;PMS5003;30873;53.908;27.576;2022-08-20T09:33:05;7.2;6.8;5
45112;PMS5003;30873;53.908;27.576;2022-08-20T09:38:01;7.9;7.6;5.2
45112;PMS5003;30873;53.908;27.576;2022-08-20T09:42:53;8.2;7.7;5.7
45112;PMS5003;30873;53.908;27.576;2022-08-20T09:48:01;9.8;9.3;6.7
45112;PMS5003;30873;53.908;27.576;2022-08-20T09:52:54;10.7;9.6;6.6
45112;PMS5003;30873;53.908;27.576;2022-08-20T09:58:06;12.7;11;7.5
45112;PMS5003;30873;53.908;27.576;2022-08-20T10:02:51;13.5;12;8.6
45112;PMS5003;30873;53.908;27.576;2022-08-20T10:07:53;12.5;11.8;7.9
45112;PMS5003;30873;53.908;27.576;2022-08-20T10:12:53;12.7;11.1;7.3
45112;PMS5003;30873;53.908;27.576;2022-08-20T10:17:53;12.1;11.5;8.1
45112;PMS5003;30873;53.908;27.576;2022-08-20T10:22:53;13.7;12.1;8.3
45112;PMS5003;30873;53.908;27.576;2022-08-20T10:28:02;14.6;13.2;9.1
45112;PMS5003;30873;53.908;27.576;2022-08-20T10:32:51;14.8;12.9;8.9
45112;PMS5003;30873;53.908;27.576;2022-08-20T10:38:07;17.8;15.5;10.5
45112;PMS5003;30873;53.908;27.576;2022-08-20T10:42:53;14.3;13.3;9.2
45112;PMS5003;30873;53.908;27.576;2022-08-20T10:47:53;15.4;12.8;8.9
45112;PMS5003;30873;53.908;27.576;2022-08-20T10:53:30;14;13.5;8.6
45112;PMS5003;30873;53.908;27.576;2022-08-20T10:58:11;14.9;13.3;8.7
45112;PMS5003;30873;53.908;27.576;2022-08-20T11:02:51;16.5;15.2;9.9
45112;PMS5003;30873;53.908;27.576;2022-08-20T11:08:02;13.9;13.2;8.8
45112;PMS5003;30873;53.908;27.576;2022-08-20T11:13:04;15.9;14.6;9.1
45112;PMS5003;30873;53.908;27.576;2022-08-20T11:18:02;16.5;15.2;9.3
45112;PMS5003;30873;53.908;27.576;2022-08-20T11:23:09;17.4;15;9.9
45112;PMS5003;30873;53.908;27.576;2022-08-20T11:27:59;16.6;14.6;9
45112;PMS5003;30873;53.908;27.576;2022-08-20T11:32:52;16.5;14.1;8.9
45112;PMS5003;30873;53.908;27.576;2022-08-20T11:37:54;15.5;13.8;8.7
45112;PMS5003;30873;53.908;27.576;2022-08-20T11:43:15;16.4;13.8;9
45112;PMS5003;30873;53.908;27.576;2022-08-20T11:48:09;15.3;13.4;9.7
45112;PMS5003;30873;53.908;27.576;2022-08-20T11:52:53;15.4;13.6;9.2
45112;PMS5003;30873;53.908;27.576;2022-08-20T11:57:53;15.4;14.1;9.8
45112;PMS5003;30873;53.908;27.576;2022-08-20T12:03:00;15.5;14.1;9.2
45112;PMS5003;30873;53.908;27.576;2022-08-20T12:08:02;14.7;13.2;8.8
45112;PMS5003;30873;53.908;27.576;2022-08-20T12:12:54;15.1;13.3;9.2
45112;PMS5003;30873;53.908;27.576;2022-08-20T12:17:54;14.1;12.9;9.1
45112;PMS5003;30873;53.908;27.576;2022-08-20T12:22:54;15.6;13.9;9.1
45112;PMS5003;30873;53.908;27.576;2022-08-20T12:28:04;15.4;13.7;9.1
45112;PMS5003;30873;53.908;27.576;2022-08-20T12:33:11;16.4;14.2;9.4
45112;PMS5003;30873;53.908;27.576;2022-08-20T12:38:04;16.6;14.6;9.5
45112;PMS5003;30873;53.908;27.576;2022-08-20T12:42:53;17.3;15;10.1
45112;PMS5003;30873;53.908;27.576;2022-08-20T12:47:58;17.9;16.3;10.9
45112;PMS5003;30873;53.908;27.576;2022-08-20T12:52:54;18.4;17.4;11
45112;PMS5003;30873;53.908;27.576;2022-08-20T12:57:55;18.1;16.6;10.8
45112;PMS5003;30873;53.908;27.576;2022-08-20T13:03:04;17.1;15.6;9.6
45112;PMS5003;30873;53.908;27.576;2022-08-20T13:07:54;18.4;15.8;10.1
45112;PMS5003;30873;53.908;27.576;2022-08-20T13:12:54;19;17.4;10.5
45112;PMS5003;30873;53.908;27.576;2022-08-20T13:18:11;17.8;16.2;10.2
45112;PMS5003;30873;53.908;27.576;2022-08-20T13:23:22;17.4;15;10
45112;PMS5003;30873;53.908;27.576;2022-08-20T13:27:54;19.3;16.8;10.7
45112;PMS5003;30873;53.908;27.576;2022-08-20T13:32:52;18.5;16.2;11
45112;PMS5003;30873;53.908;27.576;2022-08-20T13:37:54;19.8;18;11.5
45112;PMS5003;30873;53.908;27.576;2022-08-20T13:42:54;18.9;16.3;10.9
45112;PMS5003;30873;53.908;27.576;2022-08-20T13:47:54;17.9;16.4;11.4
45112;PMS5003;30873;53.908;27.576;2022-08-20T13:52:54;17.2;15.6;11.1
45112;PMS5003;30873;53.908;27.576;2022-08-20T13:58:12;19.1;17.1;12
45112;PMS5003;30873;53.908;27.576;2022-08-20T14:03:00;19.2;17.7;11.6
45112;PMS5003;30873;53.908;27.576;2022-08-20T14:07:54;19;16.6;11.6
45112;PMS5003;30873;53.908;27.576;2022-08-20T14:12:54;20.9;17.7;11.6
45112;PMS5003;30873;53.908;27.576;2022-08-20T14:17:54;18.7;16.9;11.4
45112;PMS5003;30873;53.908;27.576;2022-08-20T14:22:54;18.2;16.4;11.2
45112;PMS5003;30873;53.908;27.576;2022-08-20T14:28:10;18.9;16.6;10.8
45112;PMS5003;30873;53.908;27.576;2022-08-20T14:32:52;18.4;16.8;10.9
45112;PMS5003;30873;53.908;27.576;2022-08-20T14:38:02;16.9;15.5;10.2
45112;PMS5003;30873;53.908;27.576;2022-08-20T14:43:04;18;15.5;10.4
45112;PMS5003;30873;53.908;27.576;2022-08-20T14:48:00;18.3;16.8;10.8
45112;PMS5003;30873;53.908;27.576;2022-08-20T14:52:54;18.7;16.4;11
45112;PMS5003;30873;53.908;27.576;2022-08-20T14:58:00;18.1;16.5;10.5
45112;PMS5003;30873;53.908;27.576;2022-08-20T15:03:02;17.4;15.8;10.5
45112;PMS5003;30873;53.908;27.576;2022-08-20T15:07:54;17.6;16.8;10.6
45112;PMS5003;30873;53.908;27.576;2022-08-20T15:13:00;18;16.9;11
45112;PMS5003;30873;53.908;27.576;2022-08-20T15:18:00;18.2;16.7;11.4
45112;PMS5003;30873;53.908;27.576;2022-08-20T15:23:00;18.8;17;11
45112;PMS5003;30873;53.908;27.576;2022-08-20T15:27:54;18.4;17;11.2
45112;PMS5003;30873;53.908;27.576;2022-08-20T15:33:00;21.9;19.7;14.1
45112;PMS5003;30873;53.908;27.576;2022-08-20T15:37:55;18.7;17.3;12
45112;PMS5003;30873;53.908;27.576;2022-08-20T15:43:02;19.3;18.3;12.3
45112;PMS5003;30873;53.908;27.576;2022-08-20T15:48:07;22.3;20.7;14
45112;PMS5003;30873;53.908;27.576;2022-08-20T15:52:54;22.1;19;13.3
45112;PMS5003;30873;53.908;27.576;2022-08-20T15:58:13;21.5;19.4;13
45112;PMS5003;30873;53.908;27.576;2022-08-20T16:02:57;20.2;18.7;13.4
45112;PMS5003;30873;53.908;27.576;2022-08-20T16:07:57;22.2;20.7;14.2
45112;PMS5003;30873;53.908;27.576;2022-08-20T16:12:55;24.2;20.8;14.6
45112;PMS5003;30873;53.908;27.576;2022-08-20T16:17:57;21.4;20.2;14.2
45112;PMS5003;30873;53.908;27.576;2022-08-20T16:23:38;23.9;20.7;13.5
45112;PMS5003;30873;53.908;27.576;2022-08-20T16:28:00;23.1;19.9;13.4
45112;PMS5003;30873;53.908;27.576;2022-08-20T16:33:02;22;20;13.8
45112;PMS5003;30873;53.908;27.576;2022-08-20T16:39:07;21.8;19.6;13.7
45112;PMS5003;30873;53.908;27.576;2022-08-20T16:43:02;21.9;20.3;13.6
45112;PMS5003;30873;53.908;27.576;2022-08-20T16:48:22;21.7;20.4;13.9
45112;PMS5003;30873;53.908;27.576;2022-08-20T16:53:22;22.6;19.9;13.9
45112;PMS5003;30873;53.908;27.576;2022-08-20T16:58:14;24;20.7;14.1
45112;PMS5003;30873;53.908;27.576;2022-08-20T17:03:09;23.2;20.8;14.3
45112;PMS5003;30873;53.908;27.576;2022-08-20T17:07:58;22.5;20.7;14.1
45112;PMS5003;30873;53.908;27.576;2022-08-20T17:13:05;21.8;20.1;14.3
45112;PMS5003;30873;53.908;27.576;2022-08-20T17:23:05;20.7;19.2;13.4
45112;PMS5003;30873;53.908;27.576;2022-08-20T17:28:11;22.6;20.9;14.7
45112;PMS5003;30873;53.908;27.576;2022-08-20T17:33:04;23.6;21;13.8
45112;PMS5003;30873;53.908;27.576;2022-08-20T17:38:35;23.3;20.2;14.3
45112;PMS5003;30873;53.908;27.576;2022-08-20T17:43:21;23.4;21;13.8
45112;PMS5003;30873;53.908;27.576;2022-08-20T17:48:02;23.4;20.7;14.8
45112;PMS5003;30873;53.908;27.576;2022-08-20T17:52:55;22.8;19.7;13.9
45112;PMS5003;30873;53.908;27.576;2022-08-20T17:58:21;22.6;20.8;13.7
45112;PMS5003;30873;53.908;27.576;2022-08-20T18:03:10;22;19.1;13.7
45112;PMS5003;30873;53.908;27.576;2022-08-20T18:09:02;24.1;20.9;14.4
45112;PMS5003;30873;53.908;27.576;2022-08-20T18:12:57;21.6;20;14
45112;PMS5003;30873;53.908;27.576;2022-08-20T18:18:45;22.2;19.9;13.7
45112;PMS5003;30873;53.908;27.576;2022-08-20T18:23:13;23.4;21;13.9
45112;PMS5003;30873;53.908;27.576;2022-08-20T18:28:27;21.6;20.3;14.5
45112;PMS5003;30873;53.908;27.576;2022-08-20T18:33:07;23.6;22.2;14.7
45112;PMS5003;30873;53.908;27.576;2022-08-20T18:38:27;23.1;21.9;14.5
45112;PMS5003;30873;53.908;27.576;2022-08-20T18:42:54;25.6;23.5;15.3
45112;PMS5003;30873;53.908;27.576;2022-08-20T18:47:54;22.8;21.3;13.5
45112;PMS5003;30873;53.908;27.576;2022-08-20T18:58:04;23.2;21.4;14.3
45112;PMS5003;30873;53.908;27.576;2022-08-20T19:03:08;23.1;21;14.4
45112;PMS5003;30873;53.908;27.576;2022-08-20T19:08:04;22.5;20.1;13.6
45112;PMS5003;30873;53.908;27.576;2022-08-20T19:13:41;22.9;21.4;14.8
45112;PMS5003;30873;53.908;27.576;2022-08-20T19:18:18;24.7;22.7;14.3
45112;PMS5003;30873;53.908;27.576;2022-08-20T19:22:54;25;22;14.4
45112;PMS5003;30873;53.908;27.576;2022-08-20T19:28:23;25.1;22.1;14.9
45112;PMS5003;30873;53.908;27.576;2022-08-20T19:32:52;24.3;23.2;15
45112;PMS5003;30873;53.908;27.576;2022-08-20T19:37:54;24.2;21.9;14.3
45112;PMS5003;30873;53.908;27.576;2022-08-20T19:43:05;25.5;22.8;15.1
45112;PMS5003;30873;53.908;27.576;2022-08-20T19:53:26;24.6;21.8;14.9
45112;PMS5003;30873;53.908;27.576;2022-08-20T19:57:55;25.6;24;15.1
45112;PMS5003;30873;53.908;27.576;2022-08-20T20:02:52;23.1;22.1;15
45112;PMS5003;30873;53.908;27.576;2022-08-20T20:07:55;24.2;21.9;14.5
45112;PMS5003;30873;53.908;27.576;2022-08-20T20:12:52;23.1;22.2;14.6
45112;PMS5003;30873;53.908;27.576;2022-08-20T20:18:00;24.3;22.1;14.7
45112;PMS5003;30873;53.908;27.576;2022-08-20T20:23:18;25.4;23.7;15.7
45112;PMS5003;30873;53.908;27.576;2022-08-20T20:27:55;24.5;21.8;15.3
45112;PMS5003;30873;53.908;27.576;2022-08-20T20:33:09;24.9;22.5;14.5
45112;PMS5003;30873;53.908;27.576;2022-08-20T20:37:59;24.5;22.5;14.7
45112;PMS5003;30873;53.908;27.576;2022-08-20T20:42:56;24.4;22.9;14.9
45112;PMS5003;30873;53.908;27.576;2022-08-20T20:48:20;24.7;22.5;14.8
45112;PMS5003;30873;53.908;27.576;2022-08-20T20:53:04;24.4;22.6;15.2
45112;PMS5003;30873;53.908;27.576;2022-08-20T20:57:54;23.3;21.2;14.6
45112;PMS5003;30873;53.908;27.576;2022-08-20T21:03:02;24.3;22.1;15.4
45112;PMS5003;30873;53.908;27.576;2022-08-20T21:08:00;24.6;21.9;14.8
45112;PMS5003;30873;53.908;27.576;2022-08-20T21:13:02;22.4;21.1;14.7
45112;PMS5003;30873;53.908;27.576;2022-08-20T21:17:56;23.7;21.4;13.9
45112;PMS5003;30873;53.908;27.576;2022-08-20T21:22:54;24.7;22.2;14.7
45112;PMS5003;30873;53.908;27.576;2022-08-20T21:28:02;23;20.8;14.1
45112;PMS5003;30873;53.908;27.576;2022-08-20T21:32:52;22;20.4;14
45112;PMS5003;30873;53.908;27.576;2022-08-20T21:37:54;21.9;20;14.2
45112;PMS5003;30873;53.908;27.576;2022-08-20T21:43:02;23.1;20.7;13.9
45112;PMS5003;30873;53.908;27.576;2022-08-20T21:48:06;23.9;22.2;13.9
45112;PMS5003;30873;53.908;27.576;2022-08-20T21:53:04;22;21.1;13.8
45112;PMS5003;30873;53.908;27.576;2022-08-20T21:57:54;22.4;20.1;13.8
45112;PMS5003;30873;53.908;27.576;2022-08-20T22:02:58;21.3;19;13.3
45112;PMS5003;30873;53.908;27.576;2022-08-20T22:08:00;21.6;19.4;13.7
45112;PMS5003;30873;53.908;27.576;2022-08-20T22:13:12;21.1;19.7;13.6
45112;PMS5003;30873;53.908;27.576;2022-08-20T22:17:54;21.3;18.7;13.4
45112;PMS5003;30873;53.908;27.576;2022-08-20T22:23:01;20.8;19;13.2
45112;PMS5003;30873;53.908;27.576;2022-08-20T22:28:03;22.1;18.8;13.3
45112;PMS5003;30873;53.908;27.576;2022-08-20T22:33:21;20.5;17.8;13.1
45112;PMS5003;30873;53.908;27.576;2022-08-20T22:38:04;20.6;18.5;13.2
45112;PMS5003;30873;53.908;27.576;2022-08-20T22:42:54;21.1;18.6;13.4
45112;PMS5003;30873;53.908;27.576;2022-08-20T22:48:00;21.1;18.5;12.9
45112;PMS5003;30873;53.908;27.576;2022-08-20T22:52:54;20.9;18.9;12.9
45112;PMS5003;30873;53.908;27.576;2022-08-20T22:57:54;20.1;17.4;12.3
45112;PMS5003;30873;53.908;27.576;2022-08-20T23:03:06;21.3;19.3;13.3
45112;PMS5003;30873;53.908;27.576;2022-08-20T23:08:02;22.2;19.7;14
45112;PMS5003;30873;53.908;27.576;2022-08-20T23:13:00;20.7;19.2;13.9
45112;PMS5003;30873;53.908;27.576;2022-08-20T23:17:55;22.2;19.2;13.2
45112;PMS5003;30873;53.908;27.576;2022-08-20T23:23:00;21;19.2;13.9
45112;PMS5003;30873;53.908;27.576;2022-08-20T23:28:04;23.2;21.5;15.6
45112;PMS5003;30873;53.908;27.576;2022-08-20T23:32:52;24;22.5;17.2
45112;PMS5003;30873;53.908;27.576;2022-08-20T23:37:55;22;20.8;14.9
45112;PMS5003;30873;53.908;27.576;2022-08-20T23:43:00;24.4;22.7;16.9
45112;PMS5003;30873;53.908;27.576;2022-08-20T23:47:54;24.2;22;15.7
45112;PMS5003;30873;53.908;27.576;2022-08-20T23:52:54;19.6;17.7;12.6
45112;PMS5003;30873;53.908;27.576;2022-08-20T23:58:00;19;17.5;12.6
